Time;durP1;ratioP1;P1;durP2;ratioP2;P2;SDS_P1;SDS_P2;PMS_P1;PMS_P2;Temp;Humidity;BMP_temperature;BMP_pressure;BME280_temperature;BME280_humidity;BME280_pressure;Samples;Min_cycle;Max_cycle;Signal;HPM_P1;HPM_P2
2022/06/29 00:00:17;;;;;;;3.33;1.40;;;20.10;89.60;;;;;;4929612;29;20087;-83
2022/06/29 00:02:44;;;;;;;;;;;20.10;89.70;;;;;;4947366;28;20057;-83
2022/06/29 00:05:12;;;;;;;3.47;1.40;;;20.10;89.90;;;;;;4932175;29;19910;-83
2022/06/29 00:07:38;;;;;;;3.87;1.47;;;20.10;89.90;;;;;;4934539;29;20039;-83
2022/06/29 00:10:04;;;;;;;3.38;1.27;;;20.10;90.00;;;;;;4934115;29;20313;-83
2022/06/29 00:12:30;;;;;;;3.25;1.45;;;20.00;90.00;;;;;;4934475;29;20115;-83
2022/06/29 00:14:56;;;;;;;3.90;1.60;;;20.00;90.10;;;;;;4934570;29;20115;-84
2022/06/29 00:17:22;;;;;;;2.92;1.30;;;20.00;90.00;;;;;;4935645;29;20561;-84
2022/06/29 00:19:48;;;;;;;3.17;1.30;;;20.00;90.20;;;;;;4933985;29;20039;-83
2022/06/29 00:22:15;;;;;;;3.13;1.30;;;19.90;90.20;;;;;;4935425;29;20043;-83
2022/06/29 00:24:41;;;;;;;2.85;1.38;;;19.90;90.30;;;;;;4935428;29;20060;-83
2022/06/29 00:27:08;;;;;;;2.75;1.35;;;19.90;90.40;;;;;;4935084;29;20039;-83
2022/06/29 00:29:34;;;;;;;3.35;1.50;;;19.90;90.50;;;;;;4934175;29;20036;-83
2022/06/29 00:32:00;;;;;;;4.32;1.40;;;19.90;90.50;;;;;;4934063;29;20040;-84
2022/06/29 00:34:26;;;;;;;4.82;1.50;;;19.90;90.60;;;;;;4935186;29;20040;-84
2022/06/29 00:36:52;;;;;;;6.78;1.50;;;19.90;90.50;;;;;;4949955;29;20111;-83
2022/06/29 00:39:18;;;;;;;3.78;1.33;;;19.90;90.60;;;;;;4948834;23;20047;-69
2022/06/29 00:41:45;;;;;;;3.67;1.45;;;19.90;90.90;;;;;;4954886;29;20042;-69
2022/06/29 00:44:16;;;;;;;4.65;1.60;;;19.90;90.50;;;;;;4954313;28;20220;-68
2022/06/29 00:46:52;;;;;;;4.30;1.73;;;19.90;90.60;;;;;;4954631;28;20031;-68
2022/06/29 00:49:20;;;;;;;4.55;1.50;;;19.80;90.70;;;;;;4954606;28;20393;-69
2022/06/29 00:51:48;;;;;;;3.13;1.38;;;19.80;90.70;;;;;;4955363;29;20035;-69
2022/06/29 00:54:25;;;;;;;3.88;1.58;;;19.80;90.90;;;;;;4954166;29;20416;-69
2022/06/29 00:56:51;;;;;;;2.90;1.40;;;19.80;90.90;;;;;;4954424;29;20043;-69
2022/06/29 00:59:20;;;;;;;2.30;1.33;;;19.70;91.00;;;;;;4953598;28;20122;-69
2022/06/29 01:01:46;;;;;;;5.43;1.35;;;19.70;91.10;;;;;;4954272;29;20107;-69
2022/06/29 01:04:12;;;;;;;2.72;1.15;;;19.70;91.20;;;;;;4954513;29;20086;-70
2022/06/29 01:06:39;;;;;;;4.00;1.80;;;19.70;91.10;;;;;;4954475;29;20046;-70
2022/06/29 01:09:05;;;;;;;5.07;1.50;;;19.70;91.20;;;;;;4954042;28;20028;-70
2022/06/29 01:11:32;;;;;;;4.22;1.58;;;19.70;91.60;;;;;;4954140;29;20404;-70
2022/06/29 01:13:58;;;;;;;5.53;1.50;;;19.70;91.30;;;;;;4953723;29;20150;-69
2022/06/29 01:16:24;;;;;;;5.28;1.60;;;19.60;91.40;;;;;;4953765;29;20114;-69
2022/06/29 01:18:50;;;;;;;3.70;1.75;;;19.60;91.40;;;;;;4952437;28;20082;-69
2022/06/29 01:21:21;;;;;;;2.72;1.40;;;19.60;91.60;;;;;;4953495;29;20518;-69
2022/06/29 01:23:47;;;;;;;4.07;1.40;;;19.60;91.60;;;;;;4953499;29;20504;-69
2022/06/29 01:26:13;;;;;;;4.18;1.60;;;19.60;91.80;;;;;;4953282;29;20090;-69
2022/06/29 01:28:46;;;;;;;2.50;1.20;;;19.60;91.80;;;;;;4953390;28;20031;-69
2022/06/29 01:31:19;;;;;;;4.50;1.48;;;19.50;91.70;;;;;;4952883;29;20070;-69
2022/06/29 01:33:47;;;;;;;3.80;1.58;;;19.50;91.80;;;;;;4952206;29;20543;-69
2022/06/29 01:36:14;;;;;;;4.22;1.42;;;19.50;91.90;;;;;;4953355;29;20058;-69
2022/06/29 01:38:41;;;;;;;3.30;1.27;;;19.50;92.00;;;;;;4953231;28;20023;-70
2022/06/29 01:41:10;;;;;;;2.85;1.40;;;19.50;92.10;;;;;;4953260;29;20559;-69
2022/06/29 01:43:39;;;;;;;2.70;1.50;;;19.40;92.20;;;;;;4953465;28;20027;-69
2022/06/29 01:46:06;;;;;;;4.88;1.50;;;19.40;92.20;;;;;;4952607;29;20032;-69
2022/06/29 01:48:32;;;;;;;3.80;1.33;;;19.40;92.10;;;;;;4952951;28;20070;-70
2022/06/29 01:50:59;;;;;;;3.22;1.55;;;19.40;92.20;;;;;;4951646;29;20045;-69
2022/06/29 01:53:25;;;;;;;4.47;1.58;;;19.30;92.20;;;;;;4952943;29;20093;-69
2022/06/29 01:55:52;;;;;;;5.05;1.70;;;19.30;92.30;;;;;;4952747;28;20559;-69
2022/06/29 01:58:18;;;;;;;2.97;1.45;;;19.30;92.30;;;;;;4951556;28;20058;-69
2022/06/29 02:00:44;;;;;;;5.25;1.67;;;19.30;92.20;;;;;;4952226;29;20110;-69
2022/06/29 02:03:13;;;;;;;3.75;1.70;;;19.30;92.40;;;;;;4951655;29;20062;-69
2022/06/29 02:05:39;;;;;;;2.65;1.30;;;19.30;92.70;;;;;;4952611;29;20027;-70
2022/06/29 02:08:06;;;;;;;3.65;1.70;;;19.30;92.80;;;;;;4953005;28;20415;-70
2022/06/29 02:10:32;;;;;;;3.60;1.85;;;19.20;92.70;;;;;;4952495;29;20511;-69
2022/06/29 02:12:57;;;;;;;3.65;1.80;;;19.20;92.90;;;;;;4952824;29;20039;-69
2022/06/29 02:15:23;;;;;;;4.03;1.45;;;19.20;92.90;;;;;;4952188;29;20569;-69
2022/06/29 02:17:51;;;;;;;4.68;1.55;;;19.10;93.00;;;;;;4952597;28;20103;-69
2022/06/29 02:20:17;;;;;;;2.63;1.40;;;19.10;93.10;;;;;;4952401;29;20031;-69
2022/06/29 02:22:42;;;;;;;3.53;1.65;;;19.10;93.40;;;;;;4951286;29;20027;-69
2022/06/29 02:25:09;;;;;;;5.05;1.80;;;19.10;93.10;;;;;;4951046;29;20372;-69
2022/06/29 02:27:44;;;;;;;4.53;1.85;;;19.10;93.20;;;;;;4952538;28;20031;-69
2022/06/29 02:30:15;;;;;;;2.70;1.23;;;19.10;93.30;;;;;;4951195;28;20055;-69
2022/06/29 02:35:31;;;;;;;3.92;1.58;;;19.00;93.30;;;;;;4933405;29;20089;-69
2022/06/29 02:37:57;;;;;;;3.35;1.58;;;19.00;93.40;;;;;;4952372;28;20394;-69
2022/06/29 02:40:26;;;;;;;3.33;1.60;;;19.00;93.50;;;;;;4951857;29;20035;-69
2022/06/29 02:42:52;;;;;;;;;;;19.00;93.50;;;;;;4951675;29;20381;-69
2022/06/29 02:45:18;;;;;;;7.90;2.10;;;18.90;93.50;;;;;;4951728;28;19965;-69
2022/06/29 02:47:43;;;;;;;2.92;1.42;;;18.90;93.40;;;;;;4952254;28;20039;-69
2022/06/29 02:50:09;;;;;;;3.17;1.70;;;18.90;93.40;;;;;;4951791;29;20489;-69
2022/06/29 02:52:35;;;;;;;4.13;1.30;;;19.00;93.40;;;;;;4952238;29;20527;-69
2022/06/29 02:55:01;;;;;;;4.15;1.83;;;18.90;93.60;;;;;;4951889;28;20114;-69
2022/06/29 02:57:27;;;;;;;3.10;1.50;;;18.90;93.60;;;;;;4951883;28;20468;-69
2022/06/29 02:59:53;;;;;;;4.50;1.75;;;18.90;93.60;;;;;;4951461;29;20027;-69
2022/06/29 03:02:19;;;;;;;4.53;1.60;;;18.90;93.70;;;;;;4952212;29;20454;-69
2022/06/29 03:04:45;;;;;;;3.45;1.50;;;18.90;93.70;;;;;;4951939;28;20039;-69
2022/06/29 03:07:11;;;;;;;4.70;1.67;;;18.90;93.80;;;;;;4951846;29;20031;-69
2022/06/29 03:09:37;;;;;;;2.55;1.50;;;18.80;93.90;;;;;;4951380;28;20039;-69
2022/06/29 03:12:03;;;;;;;4.70;1.90;;;18.80;94.40;;;;;;4951937;28;20062;-69
2022/06/29 03:14:29;;;;;;;3.03;1.40;;;18.70;94.20;;;;;;4949886;29;20491;-69
2022/06/29 03:16:57;;;;;;;3.35;1.50;;;18.70;94.30;;;;;;4952414;29;20027;-70
2022/06/29 03:19:22;;;;;;;3.15;1.58;;;18.60;94.40;;;;;;4951635;28;20039;-69
2022/06/29 03:21:48;;;;;;;4.45;1.77;;;18.60;94.60;;;;;;4951829;28;20034;-69
2022/06/29 03:24:14;;;;;;;4.90;1.88;;;18.60;94.70;;;;;;4951636;29;20034;-69
2022/06/29 03:26:40;;;;;;;3.42;1.80;;;18.50;94.70;;;;;;4950357;29;20054;-69
2022/06/29 03:29:06;;;;;;;6.55;1.73;;;18.50;94.80;;;;;;4956822;28;20114;-69
2022/06/29 03:31:32;;;;;;;6.50;1.80;;;18.50;95.00;;;;;;4971016;28;20101;-69
2022/06/29 03:33:58;;;;;;;4.63;1.70;;;18.50;95.10;;;;;;4970851;28;20034;-73
2022/06/29 03:36:24;;;;;;;4.95;1.55;;;18.40;95.20;;;;;;4971010;28;20396;-72
2022/06/29 03:38:50;;;;;;;4.38;1.70;;;18.30;95.20;;;;;;4970900;28;20041;-71
2022/06/29 03:41:15;;;;;;;4.28;1.63;;;18.30;95.30;;;;;;4971445;28;20520;-67
2022/06/29 03:43:41;;;;;;;4.47;1.70;;;18.30;95.50;;;;;;4974942;28;20058;-69
2022/06/29 03:46:07;;;;;;;2.88;1.75;;;18.20;95.70;;;;;;4974255;28;20038;-69
2022/06/29 03:48:33;;;;;;;3.78;1.77;;;18.20;95.80;;;;;;4974756;28;20041;-68
2022/06/29 03:50:59;;;;;;;4.60;1.90;;;18.20;95.90;;;;;;4962347;28;20050;-69
2022/06/29 03:53:25;;;;;;;5.60;2.10;;;18.20;96.00;;;;;;4955168;29;20086;-69
2022/06/29 03:55:51;;;;;;;4.45;2.05;;;18.20;96.10;;;;;;4954972;28;20035;-69
2022/06/29 03:58:17;;;;;;;5.55;2.28;;;18.10;96.20;;;;;;4955232;28;20668;-69
2022/06/29 04:00:42;;;;;;;5.07;1.80;;;18.20;96.60;;;;;;4954460;29;20027;-69
2022/06/29 04:03:08;;;;;;;8.48;2.05;;;18.20;96.40;;;;;;4954031;29;20433;-69
2022/06/29 04:05:34;;;;;;;4.22;1.80;;;18.20;96.60;;;;;;4954829;29;20027;-69
2022/06/29 04:08:00;;;;;;;4.60;2.15;;;18.20;96.60;;;;;;4954740;28;20428;-69
2022/06/29 04:10:26;;;;;;;6.20;2.30;;;18.20;96.70;;;;;;4954536;28;20039;-69
2022/06/29 04:12:52;;;;;;;3.97;2.50;;;18.20;96.60;;;;;;4954776;29;20031;-69
2022/06/29 04:15:18;;;;;;;5.78;2.25;;;18.20;96.70;;;;;;4954198;28;20527;-69
2022/06/29 04:17:44;;;;;;;5.25;2.03;;;18.20;96.80;;;;;;4954614;28;20031;-69
2022/06/29 04:21:05;;;;;;;5.13;2.08;;;18.20;96.90;;;;;;4952824;29;20023;-69
2022/06/29 04:22:59;;;;;;;4.75;2.53;;;18.20;97.00;;;;;;4954603;29;20031;-69
2022/06/29 04:25:24;;;;;;;4.72;2.15;;;18.30;97.10;;;;;;4954752;28;20039;-69
2022/06/29 04:27:50;;;;;;;3.72;2.20;;;18.30;97.10;;;;;;4968108;23;20244;-70
2022/06/29 04:30:16;;;;;;;6.40;2.22;;;18.30;97.00;;;;;;4952983;28;20176;-70
2022/06/29 04:32:42;;;;;;;4.82;2.25;;;18.30;97.00;;;;;;4954324;28;20039;-70
2022/06/29 04:35:08;;;;;;;4.93;2.30;;;18.30;97.10;;;;;;4954120;29;20031;-70
2022/06/29 04:37:34;;;;;;;3.85;2.20;;;18.30;97.10;;;;;;4954172;28;20023;-71
2022/06/29 04:40:03;;;;;;;4.28;2.33;;;18.30;97.10;;;;;;4953859;28;20036;-70
2022/06/29 04:42:29;;;;;;;4.22;2.20;;;18.30;97.10;;;;;;4954303;28;20086;-70
2022/06/29 04:44:55;;;;;;;5.70;2.22;;;18.40;97.20;;;;;;4953416;28;20035;-70
2022/06/29 04:47:21;;;;;;;4.65;1.92;;;18.30;97.30;;;;;;4954173;28;20040;-70
2022/06/29 04:49:47;;;;;;;6.32;2.08;;;18.30;97.70;;;;;;4954576;28;20039;-70
2022/06/29 04:52:13;;;;;;;4.00;1.92;;;18.40;97.50;;;;;;4954819;28;20132;-70
2022/06/29 04:54:39;;;;;;;6.05;2.08;;;18.40;97.60;;;;;;4953055;29;20039;-69
2022/06/29 04:57:08;;;;;;;3.60;1.83;;;18.40;97.70;;;;;;4954573;28;20027;-70
2022/06/29 04:59:34;;;;;;;4.05;2.22;;;18.40;97.70;;;;;;4952683;28;20500;-70
2022/06/29 05:02:00;;;;;;;4.65;2.30;;;18.40;97.60;;;;;;4953684;28;20031;-70
2022/06/29 05:04:26;;;;;;;6.72;2.00;;;18.50;97.50;;;;;;4951913;29;20069;-69
2022/06/29 05:06:52;;;;;;;4.65;2.15;;;18.50;97.50;;;;;;4953386;29;20031;-70
2022/06/29 05:09:18;;;;;;;5.05;2.38;;;18.60;97.40;;;;;;4951788;28;20042;-71
2022/06/29 05:11:44;;;;;;;3.90;1.73;;;18.70;97.30;;;;;;4953463;28;20636;-70
2022/06/29 05:14:10;;;;;;;5.20;2.42;;;18.70;97.10;;;;;;4952288;28;20027;-70
2022/06/29 05:16:37;;;;;;;5.18;2.00;;;18.70;96.90;;;;;;4953217;28;20082;-70
2022/06/29 05:19:04;;;;;;;6.43;1.98;;;18.80;97.00;;;;;;4953203;28;20027;-70
2022/06/29 05:21:30;;;;;;;6.88;2.60;;;18.80;97.00;;;;;;4953539;28;20023;-70
2022/06/29 05:23:57;;;;;;;5.32;2.40;;;18.90;97.10;;;;;;4953310;28;20027;-69
2022/06/29 05:26:24;;;;;;;4.75;2.40;;;18.90;96.90;;;;;;4953289;28;20035;-69
2022/06/29 05:28:51;;;;;;;5.13;2.13;;;19.00;96.90;;;;;;4953336;28;20032;-69
2022/06/29 05:31:19;;;;;;;5.40;2.03;;;19.00;96.90;;;;;;4952470;28;20055;-69
2022/06/29 05:33:46;;;;;;;3.05;2.10;;;19.10;96.90;;;;;;4953410;28;20031;-69
2022/06/29 05:36:12;;;;;;;4.13;2.38;;;19.10;96.90;;;;;;4953214;28;20034;-69
2022/06/29 05:38:38;;;;;;;4.57;2.58;;;19.10;96.80;;;;;;4953079;28;20019;-69
2022/06/29 05:41:05;;;;;;;5.65;2.33;;;19.10;96.70;;;;;;4953506;28;20118;-69
2022/06/29 05:43:31;;;;;;;5.75;1.92;;;19.20;96.80;;;;;;4953277;28;20023;-69
2022/06/29 05:45:57;;;;;;;3.97;2.53;;;19.20;96.90;;;;;;4950878;29;20042;-69
2022/06/29 05:48:23;;;;;;;7.75;2.92;;;19.20;97.00;;;;;;4953256;28;20039;-70
2022/06/29 05:50:49;;;;;;;6.68;2.88;;;19.30;97.10;;;;;;4953365;28;20027;-69
2022/06/29 05:53:16;;;;;;;4.78;2.33;;;19.30;97.20;;;;;;4952876;28;20043;-69
2022/06/29 05:55:43;;;;;;;4.75;2.10;;;19.30;97.40;;;;;;4952756;29;20352;-69
2022/06/29 05:58:11;;;;;;;7.35;2.80;;;19.30;97.30;;;;;;4952882;28;20031;-70
2022/06/29 06:00:37;;;;;;;5.93;2.67;;;19.40;97.30;;;;;;4951901;28;20111;-70
2022/06/29 06:03:03;;;;;;;6.93;2.10;;;19.40;97.30;;;;;;4951823;29;20067;-70
2022/06/29 06:05:29;;;;;;;6.18;2.60;;;19.40;97.40;;;;;;4952054;28;20035;-70
2022/06/29 06:07:55;;;;;;;6.40;2.35;;;19.40;97.40;;;;;;4952621;28;20378;-70
2022/06/29 06:10:21;;;;;;;5.25;2.10;;;19.40;97.40;;;;;;4952473;28;20155;-70
2022/06/29 06:12:46;;;;;;;4.00;2.13;;;19.40;97.50;;;;;;4952797;28;20568;-70
2022/06/29 06:15:12;;;;;;;7.75;2.33;;;19.40;97.40;;;;;;4951663;29;20101;-70
2022/06/29 06:17:38;;;;;;;5.55;2.47;;;19.40;97.30;;;;;;4952424;28;20400;-70
2022/06/29 06:20:05;;;;;;;5.05;2.30;;;19.50;97.20;;;;;;4952098;28;20035;-70
2022/06/29 06:22:31;;;;;;;6.03;2.50;;;19.50;97.20;;;;;;4952358;28;20027;-70
2022/06/29 06:24:56;;;;;;;3.85;2.17;;;19.60;97.10;;;;;;4950934;29;20059;-71
2022/06/29 06:27:22;;;;;;;7.55;2.28;;;19.60;97.00;;;;;;4952254;28;20117;-71
2022/06/29 06:29:48;;;;;;;6.88;2.65;;;19.60;97.00;;;;;;4950837;28;20090;-71
2022/06/29 06:32:14;;;;;;;5.10;1.85;;;19.60;96.70;;;;;;4952041;28;20035;-70
2022/06/29 06:34:40;;;;;;;5.43;1.98;;;19.60;96.60;;;;;;4950539;29;20045;-70
2022/06/29 06:37:06;;;;;;;5.30;1.80;;;19.60;96.50;;;;;;4952338;28;20103;-70
2022/06/29 06:39:32;;;;;;;4.43;1.67;;;19.60;96.50;;;;;;4951769;28;20027;-70
2022/06/29 06:41:58;;;;;;;2.90;1.90;;;19.70;96.80;;;;;;4952105;28;20027;-70
2022/06/29 06:44:24;;;;;;;3.65;1.90;;;19.70;96.80;;;;;;4951070;28;20444;-70
2022/06/29 06:46:50;;;;;;;4.00;1.92;;;19.70;96.50;;;;;;4951843;28;20271;-70
2022/06/29 06:49:18;;;;;;;3.20;1.77;;;19.80;96.40;;;;;;4951871;28;20147;-69
2022/06/29 06:51:44;;;;;;;5.65;1.90;;;19.80;96.30;;;;;;4952438;28;20042;-71
2022/06/29 06:54:10;;;;;;;4.38;2.05;;;19.80;96.10;;;;;;4950729;28;20027;-69
2022/06/29 06:56:36;;;;;;;4.28;1.85;;;19.90;96.20;;;;;;4951650;28;20415;-69
2022/06/29 06:59:02;;;;;;;4.75;2.20;;;19.90;96.50;;;;;;4949572;28;20089;-70
2022/06/29 07:01:28;;;;;;;3.10;1.70;;;20.00;96.50;;;;;;4951406;28;20495;-69
2022/06/29 07:03:55;;;;;;;4.13;2.00;;;20.10;96.40;;;;;;4951265;28;20046;-70
2022/06/29 07:06:21;;;;;;;5.88;2.10;;;20.10;96.10;;;;;;4951334;28;20499;-69
2022/06/29 07:08:47;;;;;;;3.25;1.60;;;20.20;95.90;;;;;;4950938;28;20138;-69
2022/06/29 07:11:13;;;;;;;3.35;1.95;;;20.20;95.90;;;;;;4951444;28;20023;-69
2022/06/29 07:13:39;;;;;;;3.65;1.67;;;20.30;95.90;;;;;;4951438;28;20392;-68
2022/06/29 07:16:05;;;;;;;4.90;1.98;;;20.30;95.90;;;;;;4950338;28;20035;-68
2022/06/29 07:18:32;;;;;;;4.15;1.95;;;20.40;95.70;;;;;;4951379;28;20035;-69
2022/06/29 07:20:58;;;;;;;3.95;1.70;;;20.40;95.40;;;;;;4951182;28;20380;-69
2022/06/29 07:23:25;;;;;;;3.25;1.60;;;20.50;94.60;;;;;;4951328;28;20027;-69
2022/06/29 07:25:51;;;;;;;5.78;1.85;;;20.60;93.90;;;;;;4951366;28;20106;-70
2022/06/29 07:28:16;;;;;;;2.88;1.60;;;20.60;94.00;;;;;;4951272;28;20174;-67
2022/06/29 07:30:42;;;;;;;3.67;1.60;;;20.60;93.90;;;;;;4949898;28;20054;-68
2022/06/29 07:33:09;;;;;;;6.35;2.33;;;20.60;93.70;;;;;;4951091;28;20113;-71
2022/06/29 07:35:35;;;;;;;4.18;2.00;;;20.70;94.30;;;;;;4950561;28;20026;-73
2022/06/29 07:38:01;;;;;;;4.10;1.80;;;20.70;93.40;;;;;;4950812;28;20058;-72
2022/06/29 07:40:27;;;;;;;3.63;1.63;;;20.70;93.60;;;;;;4948933;29;20031;-72
2022/06/29 07:42:54;;;;;;;4.50;2.10;;;20.70;93.60;;;;;;4951089;28;20032;-72
2022/06/29 07:45:20;;;;;;;4.38;1.73;;;20.80;93.50;;;;;;4950396;28;20366;-73
2022/06/29 07:47:46;;;;;;;3.78;1.83;;;20.80;92.10;;;;;;4951140;28;20147;-72
2022/06/29 07:50:12;;;;;;;3.50;1.83;;;20.80;92.10;;;;;;4950810;28;20059;-72
2022/06/29 07:52:40;;;;;;;4.20;2.00;;;20.80;92.20;;;;;;4949951;29;20559;-71
2022/06/29 07:55:06;;;;;;;4.22;2.03;;;20.80;92.40;;;;;;4950909;28;20035;-73
2022/06/29 07:57:32;;;;;;;3.38;1.63;;;20.80;91.20;;;;;;4949715;28;20023;-71
2022/06/29 07:59:58;;;;;;;5.15;1.88;;;20.80;91.40;;;;;;4949915;28;20127;-72
2022/06/29 08:02:23;;;;;;;4.45;2.08;;;20.80;91.40;;;;;;4951207;28;20662;-71
2022/06/29 08:04:49;;;;;;;2.97;1.80;;;20.80;91.50;;;;;;4950828;29;20114;-71
2022/06/29 08:07:15;;;;;;;3.58;2.00;;;20.80;91.30;;;;;;4951142;28;20441;-72
2022/06/29 08:09:41;;;;;;;2.75;1.75;;;20.80;90.90;;;;;;4950592;28;20035;-72
2022/06/29 08:12:08;;;;;;;3.38;1.70;;;20.80;91.20;;;;;;4951057;28;20023;-70
2022/06/29 08:14:34;;;;;;;2.60;1.65;;;20.80;91.80;;;;;;4948572;29;20046;-70
2022/06/29 08:17:00;;;;;;;2.78;1.70;;;20.90;91.80;;;;;;4950944;29;20035;-72
2022/06/29 08:19:26;;;;;;;2.92;1.70;;;20.90;91.50;;;;;;4950677;28;20031;-71
2022/06/29 08:21:52;;;;;;;3.28;1.88;;;20.90;90.90;;;;;;4950833;29;20095;-71
2022/06/29 08:24:18;;;;;;;3.05;1.42;;;20.90;91.40;;;;;;4951011;28;20468;-72
2022/06/29 08:26:43;;;;;;;3.25;1.42;;;20.90;91.20;;;;;;4949627;28;20061;-71
2022/06/29 08:29:10;;;;;;;3.97;1.85;;;21.00;91.50;;;;;;4952597;28;20038;-71
2022/06/29 08:31:37;;;;;;;3.47;1.52;;;21.00;91.90;;;;;;4954290;28;20035;-71
2022/06/29 08:34:16;;;;;;;2.45;1.70;;;21.00;91.50;;;;;;4954145;29;20043;-71
2022/06/29 08:36:42;;;;;;;3.78;1.92;;;21.00;91.70;;;;;;4954695;28;20031;-72
2022/06/29 08:39:07;;;;;;;2.38;1.60;;;21.00;91.70;;;;;;4952881;28;20062;-71
2022/06/29 08:41:34;;;;;;;3.45;1.90;;;21.00;92.10;;;;;;4953268;29;20456;-72
2022/06/29 08:44:05;;;;;;;4.63;1.70;;;21.10;92.10;;;;;;4952549;29;20035;-71
2022/06/29 08:46:31;;;;;;;6.40;1.70;;;21.10;91.80;;;;;;4954308;28;20038;-72
2022/06/29 08:48:57;;;;;;;4.25;1.75;;;21.10;91.90;;;;;;4952734;28;20031;-72
2022/06/29 08:51:26;;;;;;;3.92;2.00;;;21.10;92.40;;;;;;4954278;28;20031;-71
2022/06/29 08:53:53;;;;;;;6.25;2.20;;;21.10;93.00;;;;;;4954601;28;20070;-70
2022/06/29 08:56:19;;;;;;;4.10;2.40;;;21.20;93.30;;;;;;4953675;28;20557;-74
2022/06/29 08:58:51;;;;;;;7.60;2.53;;;21.20;92.80;;;;;;4953035;28;20141;-75
2022/06/29 09:01:18;;;;;;;6.03;2.50;;;21.20;93.00;;;;;;4953400;28;20070;-72
2022/06/29 09:03:45;;;;;;;7.18;2.97;;;21.20;93.70;;;;;;4954824;28;20476;-70
2022/06/29 09:06:11;;;;;;;7.30;3.15;;;21.20;93.70;;;;;;4953800;29;20292;-69
2022/06/29 09:08:37;;;;;;;7.13;2.60;;;21.20;93.50;;;;;;4954559;28;20046;-70
2022/06/29 09:11:41;;;;;;;5.10;2.08;;;21.20;92.90;;;;;;4955526;29;20480;-69
2022/06/29 09:14:15;;;;;;;3.88;2.20;;;21.20;93.00;;;;;;4914353;29;20036;-68
2022/06/29 09:16:57;;;;;;;4.60;1.77;;;21.20;93.10;;;;;;4949148;29;20492;-69
2022/06/29 09:19:35;;;;;;;4.22;2.10;;;21.10;93.20;;;;;;4954565;28;20026;-68
2022/06/29 09:22:01;;;;;;;;;;;21.20;93.50;;;;;;4954158;29;20054;-69
2022/06/29 09:24:29;;;;;;;2.53;1.77;;;21.10;93.50;;;;;;4955298;28;20367;-69
2022/06/29 09:27:04;;;;;;;2.60;1.55;;;21.10;93.80;;;;;;4954786;28;20031;-69
2022/06/29 09:29:41;;;;;;;4.88;1.88;;;21.10;94.00;;;;;;4954568;28;20127;-69
2022/06/29 09:32:10;;;;;;;2.73;1.60;;;21.20;94.10;;;;;;4955142;28;20113;-69
2022/06/29 09:34:50;;;;;;;3.60;2.00;;;21.10;94.20;;;;;;4954442;28;20286;-69
2022/06/29 09:37:21;;;;;;;4.13;2.45;;;21.10;94.20;;;;;;4954514;29;20038;-69
2022/06/29 09:39:52;;;;;;;4.40;2.30;;;21.20;93.90;;;;;;4953501;28;20031;-69
2022/06/29 09:42:20;;;;;;;5.18;2.35;;;21.20;93.60;;;;;;4954509;29;20051;-69
2022/06/29 09:44:46;;;;;;;3.80;2.23;;;21.20;93.80;;;;;;4953387;29;20094;-69
2022/06/29 09:47:19;;;;;;;4.57;2.20;;;21.30;93.80;;;;;;4954550;29;20756;-69
2022/06/29 09:49:57;;;;;;;4.40;2.00;;;21.30;93.80;;;;;;4954350;28;20389;-69
2022/06/29 09:52:24;;;;;;;4.55;2.00;;;21.30;93.50;;;;;;4954810;28;20089;-69
2022/06/29 09:54:54;;;;;;;3.78;1.90;;;21.40;93.60;;;;;;4954225;28;20061;-67
2022/06/29 09:57:26;;;;;;;4.53;2.25;;;21.40;93.90;;;;;;4954277;28;20078;-70
2022/06/29 10:02:42;;;;;;;8.67;2.63;;;21.50;93.90;;;;;;4954180;29;20038;-69
2022/06/29 10:05:13;;;;;;;3.97;2.28;;;21.60;93.70;;;;;;4954256;28;20038;-68
2022/06/29 10:07:45;;;;;;;4.95;2.55;;;21.60;93.70;;;;;;4952852;28;20039;-69
2022/06/29 10:10:12;;;;;;;3.40;2.05;;;21.70;93.70;;;;;;4953899;28;20038;-68
2022/06/29 10:15:52;;;;;;;5.28;2.25;;;21.80;94.20;;;;;;4953837;29;20114;-68
2022/06/29 10:18:50;;;;;;;4.10;1.92;;;21.80;94.50;;;;;;4954017;28;20042;-68
2022/06/29 10:21:23;;;;;;;4.15;2.22;;;21.80;94.30;;;;;;4954102;28;20058;-67
2022/06/29 10:23:51;;;;;;;3.58;2.00;;;21.90;94.40;;;;;;4953816;28;20114;-68
2022/06/29 10:26:33;;;;;;;7.65;2.30;;;21.90;94.40;;;;;;4953665;28;20470;-67
2022/06/29 10:29:19;;;;;;;5.15;2.20;;;21.90;94.40;;;;;;4965971;23;20052;-86
2022/06/29 10:31:51;;;;;;;4.47;2.17;;;22.00;94.50;;;;;;4934373;29;20031;-86
2022/06/29 10:34:37;;;;;;;4.10;2.20;;;21.90;95.00;;;;;;4934150;29;20035;-86
2022/06/29 10:37:07;;;;;;;4.45;2.00;;;21.90;94.20;;;;;;4949263;29;20079;-86
2022/06/29 10:39:41;;;;;;;3.22;1.92;;;22.00;94.50;;;;;;4933935;29;20023;-86
2022/06/29 10:45:17;;;;;;;4.80;2.20;;;21.90;93.20;;;;;;4934381;29;20102;-86
2022/06/29 10:47:53;;;;;;;4.10;1.80;;;22.00;93.30;;;;;;4933877;29;20043;-86
2022/06/29 10:50:24;;;;;;;4.05;1.98;;;22.00;93.30;;;;;;4916667;29;20044;-86
2022/06/29 10:52:55;;;;;;;4.90;2.47;;;22.10;93.60;;;;;;4934206;29;20046;-85
2022/06/29 10:55:22;;;;;;;3.03;1.77;;;22.10;93.80;;;;;;4933044;29;20046;-85
2022/06/29 10:57:48;;;;;;;4.82;2.25;;;22.20;93.00;;;;;;4932815;29;20131;-86
2022/06/29 11:00:21;;;;;;;4.65;1.98;;;22.30;92.40;;;;;;4932592;29;20059;-83
2022/06/29 11:02:47;;;;;;;6.03;1.90;;;22.40;92.20;;;;;;4932745;29;20434;-86
2022/06/29 11:05:12;;;;;;;5.53;2.30;;;22.40;92.60;;;;;;4932831;29;20031;-86
2022/06/29 11:13:24;;;;;;;5.07;2.28;;;22.50;92.50;;;;;;4932830;29;19911;-86
2022/06/29 11:15:53;;;;;;;5.20;2.65;;;22.60;92.80;;;;;;4933638;29;20050;-86
2022/06/29 11:18:29;;;;;;;4.60;2.55;;;22.60;92.70;;;;;;4933800;29;20035;-85
2022/06/29 11:21:05;;;;;;;3.78;2.30;;;22.70;92.10;;;;;;4932625;29;20027;-86
2022/06/29 11:23:32;;;;;;;4.55;2.08;;;22.70;92.40;;;;;;4933924;29;20054;-86
2022/06/29 11:25:59;;;;;;;3.37;1.80;;;22.70;92.50;;;;;;4933648;29;20035;-86
2022/06/29 11:28:29;;;;;;;5.53;2.33;;;22.70;92.70;;;;;;4948427;28;20028;-85
2022/06/29 11:31:02;;;;;;;4.40;2.00;;;22.70;92.80;;;;;;4933778;29;20059;-86
2022/06/29 11:33:30;;;;;;;3.88;2.10;;;22.60;92.30;;;;;;4932423;29;20497;-84
2022/06/29 11:35:57;;;;;;;5.05;2.40;;;22.70;91.90;;;;;;4933669;29;20062;-84
2022/06/29 11:38:29;;;;;;;3.55;2.13;;;22.60;91.80;;;;;;4932693;29;20449;-83
2022/06/29 11:40:55;;;;;;;3.33;2.08;;;22.70;91.80;;;;;;4933500;29;20457;-83
2022/06/29 11:43:21;;;;;;;5.38;2.25;;;22.60;90.70;;;;;;4933471;29;20103;-83
2022/06/29 11:45:52;;;;;;;3.60;2.17;;;22.60;90.20;;;;;;4932220;29;20024;-86
2022/06/29 11:48:21;;;;;;;4.82;2.55;;;22.60;90.30;;;;;;4933532;29;20051;-84
2022/06/29 11:50:57;;;;;;;4.35;2.38;;;22.50;90.50;;;;;;4931956;29;20403;-84
2022/06/29 11:53:46;;;;;;;4.80;2.40;;;22.50;90.80;;;;;;4932119;29;20272;-84
2022/06/29 11:56:17;;;;;;;3.78;2.33;;;22.50;91.20;;;;;;4933290;29;20034;-84
2022/06/29 11:58:51;;;;;;;4.60;2.40;;;22.50;91.40;;;;;;4931848;29;20024;-84
2022/06/29 12:01:22;;;;;;;3.75;2.30;;;22.50;91.60;;;;;;4933692;29;20102;-84
2022/06/29 12:03:55;;;;;;;3.97;2.40;;;22.50;92.00;;;;;;4935915;29;20122;-84
2022/06/29 12:06:27;;;;;;;3.53;2.10;;;22.70;91.80;;;;;;4936879;29;20477;-84
2022/06/29 12:08:56;;;;;;;4.47;2.17;;;22.90;91.30;;;;;;4936620;29;20028;-84
2022/06/29 12:11:23;;;;;;;2.83;1.80;;;23.10;91.50;;;;;;4919896;29;20042;-84
2022/06/29 12:13:49;;;;;;;3.97;2.17;;;23.20;91.10;;;;;;4936883;29;20391;-84
2022/06/29 12:16:16;;;;;;;4.05;1.98;;;23.30;89.60;;;;;;4937058;29;20520;-84
2022/06/29 12:18:42;;;;;;;3.65;1.90;;;23.40;86.60;;;;;;4936524;29;20028;-84
2022/06/29 12:21:09;;;;;;;4.80;1.90;;;23.40;87.50;;;;;;4936960;29;20031;-84
2022/06/29 12:23:36;;;;;;;3.80;2.00;;;23.40;87.40;;;;;;4919614;29;20038;-84
2022/06/29 12:26:02;;;;;;;6.07;2.47;;;23.60;87.50;;;;;;4936799;29;20487;-84
2022/06/29 12:28:28;;;;;;;2.80;1.90;;;23.80;85.00;;;;;;4936380;29;20036;-84
2022/06/29 12:30:54;;;;;;;3.00;1.83;;;24.00;84.80;;;;;;4936281;29;20043;-84
2022/06/29 12:33:21;;;;;;;2.85;1.70;;;24.10;84.60;;;;;;4951155;29;20039;-84
2022/06/29 12:35:48;;;;;;;4.18;2.00;;;24.20;83.60;;;;;;4935257;29;20079;-84
2022/06/29 12:38:14;;;;;;;3.20;1.70;;;24.20;83.50;;;;;;4936277;29;20103;-84
2022/06/29 12:40:39;;;;;;;2.53;1.60;;;24.20;83.90;;;;;;4935053;29;20580;-84
2022/06/29 12:43:06;;;;;;;2.92;1.83;;;24.20;82.80;;;;;;4936417;29;20035;-84
2022/06/29 12:45:32;;;;;;;2.47;1.60;;;24.30;82.40;;;;;;4936216;29;20263;-84
2022/06/29 12:47:58;;;;;;;3.22;1.40;;;24.30;81.70;;;;;;4936335;29;20028;-84
2022/06/29 12:50:24;;;;;;;2.97;1.85;;;24.20;81.10;;;;;;4934760;29;20032;-84
2022/06/29 12:52:51;;;;;;;3.20;1.60;;;24.20;81.70;;;;;;4936041;29;20484;-84
2022/06/29 12:55:21;;;;;;;2.63;1.80;;;24.10;82.70;;;;;;4936120;29;20051;-84
2022/06/29 12:57:48;;;;;;;3.45;1.88;;;24.10;83.50;;;;;;4935885;29;20048;-84
2022/06/29 13:00:15;;;;;;;3.97;1.90;;;24.00;83.80;;;;;;4934557;29;20047;-84
2022/06/29 13:02:42;;;;;;;4.00;1.77;;;24.00;84.00;;;;;;4936126;29;20043;-84
2022/06/29 13:05:08;;;;;;;3.03;1.70;;;24.00;83.90;;;;;;4936044;29;20635;-84
2022/06/29 13:07:37;;;;;;;3.13;1.75;;;24.10;84.20;;;;;;4934362;29;20456;-84